OA08 weather

Medflight Heliport
Columbus, Ohio, United States

Public forecast

Using degrees Fahrenheit for public forecast. Weather courtesy of forecast.io.

Closest aviation weather report (METAR) to Medflight Heliport

Closest report is The Ohio State University Airport - Don Scott Field, 0.4 nm (0.7 km) SW. Retrieved 2020/05/26 20:53 UTC (9 minutes ago):

KOSU 262053Z 09010KT 10SM SCT065 31/17 A3002 RMK AO2 SLP157 T03060172 56016

Closest aviation forecast (TAF) to Medflight Heliport

Closest forecast is John Glenn Columbus International Airport, 9.6 nm (17.9 km) ESE. Retrieved 2020/05/26 18:27 UTC (3 hours ago):

TAF KCMH 261723Z 2618/2718 14005KT P6SM FEW040 FEW250 FM270500 14004KT P6SM SCT040 BKN250 FM271000 14004KT P6SM FEW040 BKN120 FM271400 15006KT P6SM SCT040 SCT100